Time;durP1;ratioP1;P1;durP2;ratioP2;P2;SDS_P1;SDS_P2;PMS_P1;PMS_P2;Temp;Humidity;BMP_temperature;BMP_pressure;BME280_temperature;BME280_humidity;BME280_pressure;Samples;Min_cycle;Max_cycle;Signal;HPM_P1;HPM_P2
2022/11/30 00:01:46;;;;;;;26.47;15.67;;;2.20;99.90;3.50;97135.00;;;;5120973;27;20419;-67
2022/11/30 00:04:35;;;;;;;27.07;14.90;;;2.20;99.90;3.50;97139.00;;;;5131508;27;20463;-68
2022/11/30 00:07:24;;;;;;;26.20;14.53;;;2.40;99.90;3.50;97131.00;;;;5126657;27;20468;-68
2022/11/30 00:10:13;;;;;;;23.77;14.93;;;2.40;99.90;3.60;97135.00;;;;5119180;27;20438;-68
2022/11/30 00:13:03;;;;;;;28.70;16.23;;;2.20;99.90;3.40;97143.00;;;;5130924;27;20481;-67
2022/11/30 00:15:52;;;;;;;29.93;18.23;;;2.30;99.90;3.50;97137.00;;;;5129721;27;20424;-68
2022/11/30 00:18:40;;;;;;;30.03;15.23;;;2.20;99.90;3.60;97138.00;;;;5119262;27;20409;-68
2022/11/30 00:21:29;;;;;;;31.60;15.67;;;2.30;99.90;3.60;97138.00;;;;5125711;27;20443;-68
2022/11/30 00:24:17;;;;;;;34.30;15.67;;;2.30;99.90;3.60;97135.00;;;;5118152;27;20506;-67
2022/11/30 00:27:06;;;;;;;24.90;13.67;;;2.40;99.90;3.60;97133.00;;;;5117188;27;20429;-68
2022/11/30 00:29:56;;;;;;;29.53;16.30;;;2.40;99.90;3.70;97142.00;;;;5117971;27;20986;-68
2022/11/30 00:32:45;;;;;;;21.60;13.50;;;2.30;99.90;3.60;97143.00;;;;5128245;27;20436;-69
2022/11/30 00:35:34;;;;;;;23.17;14.40;;;2.40;99.90;3.50;97137.00;;;;5119915;27;20428;-68
2022/11/30 00:38:22;;;;;;;31.17;16.77;;;2.40;99.90;3.60;97133.00;;;;5121681;27;20542;-69
2022/11/30 00:41:12;;;;;;;25.90;14.43;;;2.40;99.90;3.60;97144.00;;;;5129641;27;20428;-68
2022/11/30 00:44:00;;;;;;;30.00;15.23;;;2.40;99.90;3.60;97137.00;;;;5128990;27;20955;-68
2022/11/30 00:46:50;;;;;;;27.37;15.00;;;2.30;99.90;3.40;97138.00;;;;5120577;27;20463;-68
2022/11/30 00:49:39;;;;;;;24.53;14.60;;;2.50;99.90;3.30;97128.00;;;;5130522;27;20512;-68
2022/11/30 00:52:29;;;;;;;23.40;14.70;;;2.30;99.90;3.20;97122.00;;;;5130673;27;20451;-68
2022/11/30 00:55:17;;;;;;;23.43;14.43;;;2.30;99.90;3.10;97122.00;;;;5126176;27;20589;-68
2022/11/30 00:58:06;;;;;;;23.07;15.33;;;2.30;99.90;3.00;97135.00;;;;5129480;27;20965;-68
2022/11/30 01:00:55;;;;;;;22.13;14.60;;;2.20;99.90;3.10;97130.00;;;;5117975;27;20420;-68
2022/11/30 01:03:45;;;;;;;27.77;15.83;;;2.10;99.90;3.10;97133.00;;;;5122945;27;20454;-68
2022/11/30 01:06:34;;;;;;;32.93;15.30;;;2.20;99.90;3.10;97131.00;;;;5119939;27;20416;-68
2022/11/30 01:09:22;;;;;;;32.37;14.83;;;2.20;99.90;3.20;97130.00;;;;5130042;27;20426;-68
2022/11/30 01:12:11;;;;;;;29.47;14.77;;;2.30;99.90;3.10;97132.00;;;;5129535;27;20451;-68
2022/11/30 01:15:00;;;;;;;31.30;12.17;;;2.10;99.90;2.90;97143.00;;;;5126052;27;20424;-68
2022/11/30 01:17:49;;;;;;;25.13;13.57;;;2.10;99.90;2.90;97145.00;;;;5127058;27;20483;-68
2022/11/30 01:20:42;;;;;;;22.23;14.47;;;2.20;99.90;3.00;97140.00;;;;5123032;27;20428;-68
2022/11/30 01:23:30;;;;;;;21.83;14.50;;;2.10;99.90;3.10;97137.00;;;;5121858;27;20451;-68
2022/11/30 01:26:20;;;;;;;23.43;13.57;;;2.00;99.90;3.10;97136.00;;;;5117185;27;20516;-68
2022/11/30 01:29:08;;;;;;;24.07;13.57;;;2.10;99.90;3.00;97142.00;;;;5117406;27;20433;-68
2022/11/30 01:31:57;;;;;;;24.63;14.53;;;2.10;99.90;2.90;97138.00;;;;5122149;27;20440;-68
2022/11/30 01:34:46;;;;;;;19.50;12.93;;;2.00;99.90;3.00;97129.00;;;;5117814;27;20977;-67
2022/11/30 01:37:36;;;;;;;29.13;14.17;;;2.00;99.90;3.00;97121.00;;;;5123864;27;20425;-69
2022/11/30 01:40:24;;;;;;;23.83;14.17;;;2.00;99.90;3.20;97123.00;;;;5115514;27;20408;-68
2022/11/30 01:43:20;;;;;;;26.80;13.03;;;2.30;99.90;3.20;97119.00;;;;5121381;27;20500;-68
2022/11/30 01:46:23;;;;;;;26.13;14.37;;;2.10;99.90;3.10;97133.00;;;;5128323;27;20483;-67
2022/11/30 01:49:18;;;;;;;22.37;14.17;;;2.10;99.90;3.10;97134.00;;;;5120422;27;20450;-68
2022/11/30 01:52:11;;;;;;;22.20;13.03;;;2.30;99.90;3.00;97143.00;;;;5119047;27;20449;-68
2022/11/30 01:55:13;;;;;;;19.70;13.87;;;2.10;99.90;3.00;97130.00;;;;5118059;28;20421;-68
2022/11/30 01:58:07;;;;;;;33.10;14.77;;;2.10;99.90;3.30;97136.00;;;;5121110;27;20501;-68
2022/11/30 02:00:56;;;;;;;22.63;13.17;;;2.00;99.90;3.30;97143.00;;;;5116764;28;20413;-68
2022/11/30 02:03:53;;;;;;;24.23;15.13;;;2.10;99.90;3.20;97150.00;;;;5117653;28;20444;-68
2022/11/30 02:06:42;;;;;;;22.97;13.67;;;2.10;99.90;3.30;97142.00;;;;5125099;28;20529;-68
2022/11/30 02:09:37;;;;;;;26.27;13.97;;;2.20;99.90;3.30;97146.00;;;;5123842;28;20964;-68
2022/11/30 02:12:37;;;;;;;28.17;13.50;;;2.20;99.90;3.30;97147.00;;;;5124612;28;20511;-68
2022/11/30 02:15:42;;;;;;;21.13;13.57;;;2.20;99.90;3.20;97141.00;;;;5129930;28;20503;-68
2022/11/30 02:18:40;;;;;;;24.87;15.13;;;2.20;99.90;3.10;97141.00;;;;5112318;28;20420;-68
2022/11/30 02:21:37;;;;;;;25.53;14.20;;;2.20;99.90;3.20;97143.00;;;;5123131;28;20505;-67
2022/11/30 02:24:43;;;;;;;23.87;14.20;;;2.20;99.90;3.10;97137.00;;;;5118993;28;20585;-68
2022/11/30 02:28:07;;;;;;;21.33;11.93;;;2.20;99.90;2.90;97148.00;;;;5117199;28;20432;-68
2022/11/30 02:31:00;;;;;;;26.50;14.23;;;2.20;99.90;3.10;97143.00;;;;5130776;27;20443;-68
2022/11/30 02:33:51;;;;;;;26.87;13.27;;;2.10;99.90;3.30;97152.00;;;;5129031;27;20827;-67
2022/11/30 02:36:41;;;;;;;27.03;14.90;;;2.10;99.90;3.30;97156.00;;;;5118073;27;20425;-68
2022/11/30 02:39:30;;;;;;;28.23;14.47;;;2.20;99.90;3.40;97155.00;;;;5120291;27;20539;-68
2022/11/30 02:42:19;;;;;;;21.73;13.80;;;2.40;99.90;3.30;97154.00;;;;5128548;27;20512;-69
2022/11/30 02:45:09;;;;;;;23.23;14.17;;;2.20;99.90;3.10;97155.00;;;;5133446;27;20471;-68
2022/11/30 02:48:08;;;;;;;25.53;14.90;;;2.20;99.90;3.10;97149.00;;;;5129721;27;20573;-68
2022/11/30 02:51:01;;;;;;;19.37;12.10;;;2.20;99.90;3.00;97155.00;;;;5121615;27;20420;-68
2022/11/30 02:53:50;;;;;;;27.37;14.10;;;2.10;99.90;3.10;97149.00;;;;5130652;27;20432;-68
2022/11/30 02:56:39;;;;;;;25.80;14.13;;;2.10;99.90;3.00;97155.00;;;;5130709;27;20522;-68
2022/11/30 02:59:28;;;;;;;21.10;13.43;;;2.10;99.90;2.90;97134.00;;;;5122664;27;20424;-69
2022/11/30 03:02:17;;;;;;;25.10;14.43;;;2.20;99.90;2.70;97140.00;;;;5125757;27;20776;-68
2022/11/30 03:05:08;;;;;;;26.03;16.07;;;2.00;99.90;2.80;97135.00;;;;5132675;27;20439;-68
2022/11/30 03:07:57;;;;;;;24.07;12.43;;;2.00;99.90;2.90;97137.00;;;;5125247;27;20436;-67
2022/11/30 03:10:45;;;;;;;25.97;14.23;;;2.00;99.90;2.80;97135.00;;;;5122317;27;20405;-68
2022/11/30 03:13:35;;;;;;;19.33;12.33;;;2.00;99.90;3.00;97134.00;;;;5118287;27;20471;-68
2022/11/30 03:16:23;;;;;;;22.33;12.60;;;2.00;99.90;3.10;97127.00;;;;5133203;27;20462;-68
2022/11/30 03:19:13;;;;;;;25.57;13.90;;;1.90;99.90;3.20;97132.00;;;;5131608;27;20416;-68
2022/11/30 03:22:03;;;;;;;25.63;14.67;;;2.10;99.90;3.30;97131.00;;;;5132005;27;20423;-68
2022/11/30 03:24:51;;;;;;;26.63;15.63;;;2.10;99.90;3.40;97133.00;;;;5132112;27;20520;-68
2022/11/30 03:27:40;;;;;;;20.83;12.90;;;2.10;99.90;3.30;97131.00;;;;5129537;27;20468;-68
2022/11/30 03:30:29;;;;;;;28.60;14.07;;;2.10;99.90;3.40;97136.00;;;;5124726;27;20432;-68
2022/11/30 03:33:17;;;;;;;30.13;15.40;;;2.10;99.90;3.40;97131.00;;;;5132135;27;20451;-68
2022/11/30 03:36:09;;;;;;;28.23;16.53;;;2.20;99.90;3.40;97134.00;;;;5131728;27;20939;-68
2022/11/30 03:39:00;;;;;;;27.87;16.40;;;2.20;99.90;3.40;97131.00;;;;5132163;27;20857;-68
2022/11/30 03:41:48;;;;;;;29.83;16.57;;;;;3.40;97133.00;;;;5122635;27;20440;-68
2022/11/30 03:44:37;;;;;;;25.20;14.20;;;;;3.50;97129.00;;;;5119653;27;20494;-68
2022/11/30 03:47:26;;;;;;;27.43;16.27;;;2.20;99.90;3.50;97134.00;;;;5130464;27;20503;-68
2022/11/30 03:50:15;;;;;;;27.40;15.47;;;2.30;99.90;3.50;97148.00;;;;5131783;27;21214;-68
2022/11/30 03:53:04;;;;;;;31.03;15.60;;;2.30;99.90;3.50;97149.00;;;;5123087;27;20504;-67
2022/11/30 03:55:55;;;;;;;27.97;16.17;;;2.30;99.90;3.60;97149.00;;;;5118826;27;20424;-68
2022/11/30 03:58:44;;;;;;;29.73;17.47;;;2.30;99.90;3.50;97144.00;;;;5127165;27;20429;-68
2022/11/30 04:01:33;;;;;;;27.47;16.67;;;2.30;99.90;3.60;97148.00;;;;5130923;27;20420;-68
2022/11/30 04:04:21;;;;;;;24.10;13.97;;;3.10;99.90;3.60;97147.00;;;;5130978;27;20494;-68
2022/11/30 04:07:10;;;;;;;28.83;16.47;;;2.50;99.90;3.60;97144.00;;;;5131626;27;20463;-68
2022/11/30 04:09:59;;;;;;;29.27;16.93;;;2.30;99.90;3.60;97148.00;;;;5131336;27;20516;-68
2022/11/30 04:12:51;;;;;;;39.37;16.53;;;2.40;99.90;3.50;97142.00;;;;5127216;27;20462;-68
2022/11/30 04:15:40;;;;;;;24.87;15.70;;;0.90;99.90;3.50;97133.00;;;;5120551;27;20421;-68
2022/11/30 04:18:31;;;;;;;23.07;15.67;;;2.40;99.90;3.40;97139.00;;;;5129520;27;20421;-68
2022/11/30 04:21:19;;;;;;;26.70;15.60;;;2.30;99.90;3.40;97139.00;;;;5127807;27;20928;-68
2022/11/30 04:24:09;;;;;;;27.57;15.50;;;2.50;99.90;3.50;97139.00;;;;5122638;27;20465;-68
2022/11/30 04:26:58;;;;;;;25.93;16.80;;;2.30;99.90;3.50;97138.00;;;;5128931;27;20452;-69
2022/11/30 04:29:48;;;;;;;29.20;16.93;;;2.30;99.90;3.30;97138.00;;;;5125928;27;20416;-68
2022/11/30 04:32:36;;;;;;;28.00;15.97;;;2.40;99.90;3.20;97133.00;;;;5126279;27;20478;-68
2022/11/30 04:35:25;;;;;;;30.77;17.87;;;2.30;99.90;3.40;97150.00;;;;5120600;27;20485;-68
2022/11/30 04:38:14;;;;;;;24.27;14.73;;;2.30;99.90;3.50;97145.00;;;;5115069;27;20415;-68
2022/11/30 04:41:07;;;;;;;33.93;17.43;;;2.40;99.90;3.50;97146.00;;;;5124910;27;20469;-68
2022/11/30 04:43:56;;;;;;;24.83;15.00;;;2.30;99.90;3.60;97153.00;;;;5124973;27;20855;-68
2022/11/30 04:46:46;;;;;;;23.43;14.33;;;2.30;99.90;3.60;97143.00;;;;5120440;27;20563;-68
2022/11/30 04:49:35;;;;;;;28.50;15.93;;;2.30;99.90;3.50;97150.00;;;;5129095;27;20969;-68
2022/11/30 04:52:24;;;;;;;26.50;15.73;;;2.50;99.90;3.40;97153.00;;;;5124182;27;21054;-68
2022/11/30 04:55:12;;;;;;;21.10;14.00;;;2.50;99.90;3.40;97143.00;;;;5121107;27;20423;-68
2022/11/30 04:58:01;;;;;;;26.90;15.23;;;2.50;99.90;3.30;97143.00;;;;5123374;27;20547;-68
2022/11/30 05:00:50;;;;;;;28.87;15.57;;;2.50;99.90;3.20;97138.00;;;;5119512;27;20451;-68
2022/11/30 05:03:40;;;;;;;23.57;15.63;;;2.30;99.90;3.30;97140.00;;;;5129273;27;21078;-68
2022/11/30 05:06:28;;;;;;;28.20;14.97;;;2.40;99.90;3.10;97158.00;;;;5130355;27;20536;-68
2022/11/30 05:09:17;;;;;;;29.93;15.60;;;2.30;99.90;3.30;97151.00;;;;5130285;27;20470;-68
2022/11/30 05:12:06;;;;;;;26.40;15.57;;;2.20;99.90;3.40;97160.00;;;;5130128;27;20462;-68
2022/11/30 05:14:55;;;;;;;40.43;15.50;;;2.20;99.90;3.50;97170.00;;;;5130536;27;20451;-68
2022/11/30 05:17:44;;;;;;;27.47;14.40;;;2.30;99.90;3.60;97155.00;;;;5123422;27;20450;-68
2022/11/30 05:20:34;;;;;;;26.97;14.27;;;2.30;99.90;3.60;97160.00;;;;5122384;27;20428;-68
2022/11/30 05:23:23;;;;;;;25.60;13.33;;;2.30;99.90;3.60;97173.00;;;;5127092;27;20485;-68
2022/11/30 05:26:11;;;;;;;21.93;14.00;;;2.40;99.90;3.70;97173.00;;;;5129932;27;20495;-68
2022/11/30 05:29:00;;;;;;;20.23;12.77;;;2.40;99.90;3.70;97179.00;;;;5129839;27;20424;-68
2022/11/30 05:31:49;;;;;;;23.80;13.97;;;2.60;99.90;3.60;97177.00;;;;5121270;27;20954;-68
2022/11/30 05:34:38;;;;;;;23.93;14.73;;;2.40;99.90;3.50;97183.00;;;;5116266;27;21194;-68
2022/11/30 05:37:38;;;;;;;29.17;16.83;;;2.40;99.90;3.30;97186.00;;;;5128115;27;20790;-68
2022/11/30 05:40:27;;;;;;;30.67;17.70;;;2.50;99.90;3.20;97174.00;;;;5118874;27;21003;-68
2022/11/30 05:43:17;;;;;;;28.30;14.63;;;;;3.30;97179.00;;;;5119688;27;20428;-68
2022/11/30 05:46:09;;;;;;;25.73;15.33;;;2.30;99.90;3.30;97188.00;;;;5123052;27;20547;-68
2022/11/30 05:48:57;;;;;;;30.17;14.87;;;2.30;99.90;3.50;97191.00;;;;5120675;27;20424;-68
2022/11/30 05:51:46;;;;;;;28.37;14.83;;;2.40;99.90;3.60;97189.00;;;;5123273;27;20423;-68
2022/11/30 05:54:36;;;;;;;24.30;14.80;;;2.40;99.90;3.50;97183.00;;;;5127048;27;20451;-68
2022/11/30 05:57:25;;;;;;;23.30;14.00;;;2.40;99.90;3.40;97180.00;;;;5118340;27;20465;-68
2022/11/30 06:00:15;;;;;;;19.83;13.10;;;2.40;99.90;3.20;97174.00;;;;5116380;28;20424;-68
2022/11/30 06:03:04;;;;;;;32.93;15.40;;;2.30;99.90;3.10;97166.00;;;;5117319;27;20468;-68
2022/11/30 06:05:53;;;;;;;30.53;17.37;;;2.30;99.90;3.40;97183.00;;;;5120724;27;20930;-68
2022/11/30 06:08:42;;;;;;;24.53;13.63;;;2.30;99.90;3.30;97183.00;;;;5122567;28;20444;-68
2022/11/30 06:11:32;;;;;;;29.10;16.03;;;2.50;99.90;3.10;97179.00;;;;5129802;28;20419;-68
2022/11/30 06:14:21;;;;;;;24.97;13.63;;;2.30;99.90;3.10;97181.00;;;;5122502;28;20444;-68
2022/11/30 06:17:09;;;;;;;24.13;13.17;;;2.20;99.90;3.30;97191.00;;;;5121419;28;20432;-68
2022/11/30 06:19:58;;;;;;;21.40;14.97;;;2.30;99.90;3.30;97190.00;;;;5127777;28;20458;-68
2022/11/30 06:22:47;;;;;;;28.20;15.40;;;2.40;99.90;3.30;97193.00;;;;5118574;28;20973;-68
2022/11/30 06:25:35;;;;;;;24.70;14.40;;;2.30;99.90;3.50;97197.00;;;;5117678;28;20432;-68
2022/11/30 06:28:25;;;;;;;21.90;14.30;;;2.30;99.90;3.50;97186.00;;;;5120562;28;20466;-68
2022/11/30 06:31:14;;;;;;;26.97;14.17;;;2.30;99.90;3.40;97194.00;;;;5115319;28;20684;-68
2022/11/30 06:34:03;;;;;;;24.80;13.73;;;;;3.30;97191.00;;;;5123737;28;20436;-68
2022/11/30 06:36:52;;;;;;;28.97;14.47;;;2.30;99.90;3.30;97197.00;;;;5114840;28;20424;-68
2022/11/30 06:39:40;;;;;;;23.97;14.20;;;2.30;99.90;3.30;97202.00;;;;5118599;28;20482;-68
2022/11/30 06:42:49;;;;;;;31.10;17.07;;;2.30;99.90;3.20;97215.00;;;;5117085;28;20448;-68
2022/11/30 06:45:39;;;;;;;23.70;13.50;;;2.50;99.90;3.10;97199.00;;;;5117484;28;20412;-68
2022/11/30 06:48:28;;;;;;;24.13;14.90;;;2.30;99.90;3.30;97208.00;;;;5124497;28;20459;-68
2022/11/30 06:51:17;;;;;;;26.70;16.43;;;2.30;99.90;3.40;97208.00;;;;5118830;28;20450;-68
2022/11/30 06:54:06;;;;;;;28.33;15.70;;;2.30;99.90;3.20;97209.00;;;;5123932;27;20500;-68
2022/11/30 06:56:56;;;;;;;31.13;14.37;;;2.30;99.90;3.30;97213.00;;;;5123535;28;20796;-67
2022/11/30 06:59:46;;;;;;;29.07;15.93;;;2.30;99.90;3.30;97219.00;;;;5121323;28;20856;-68
2022/11/30 07:02:37;;;;;;;36.87;22.87;;;2.10;99.90;3.30;97217.00;;;;5120719;28;20838;-68
2022/11/30 07:05:25;;;;;;;41.27;24.57;;;2.30;99.90;3.40;97220.00;;;;5099815;28;20911;-68
2022/11/30 07:08:16;;;;;;;30.03;16.70;;;2.30;99.90;3.20;97210.00;;;;5099302;28;20460;-68
2022/11/30 07:11:05;;;;;;;32.67;18.30;;;2.30;99.90;3.30;97225.00;;;;5101337;28;20763;-67
2022/11/30 07:13:54;;;;;;;25.43;14.50;;;2.30;99.90;3.30;97219.00;;;;5096651;28;20452;-68
2022/11/30 07:16:43;;;;;;;25.93;14.53;;;2.50;99.90;3.30;97226.00;;;;5097362;28;20425;-68
2022/11/30 07:19:34;;;;;;;28.83;17.07;;;2.30;99.90;3.30;97230.00;;;;5102901;28;20811;-68
2022/11/30 07:22:22;;;;;;;27.57;15.73;;;2.30;99.90;3.20;97225.00;;;;5101662;28;20839;-68
2022/11/30 07:28:18;;;;;;;21.87;12.67;;;;;3.30;97230.00;;;;5099938;28;20449;-67
2022/11/30 07:31:19;;;;;;;31.07;16.10;;;2.30;99.90;3.40;97238.00;;;;5099789;28;20859;-68
2022/11/30 07:34:10;;;;;;;38.10;16.87;;;2.30;99.90;3.40;97238.00;;;;5100909;28;20432;-67
2022/11/30 07:37:00;;;;;;;23.60;13.97;;;2.40;99.90;3.50;97231.00;;;;5104475;28;20406;-68
2022/11/30 07:39:49;;;;;;;29.87;14.67;;;2.50;99.90;3.60;97237.00;;;;5101594;28;20488;-68
2022/11/30 07:42:37;;;;;;;28.63;15.43;;;2.30;99.90;3.70;97233.00;;;;5102020;28;20451;-67
2022/11/30 07:45:26;;;;;;;33.50;20.17;;;2.50;99.90;3.80;97236.00;;;;5100200;28;20421;-68
2022/11/30 07:48:15;;;;;;;35.13;20.67;;;2.60;99.90;3.70;97236.00;;;;5104581;28;20986;-68
2022/11/30 07:51:05;;;;;;;32.80;14.63;;;2.60;99.90;3.70;97237.00;;;;5099291;28;20444;-68
2022/11/30 07:53:56;;;;;;;25.23;15.20;;;2.60;99.90;3.50;97231.00;;;;5102821;28;20436;-68
2022/11/30 07:56:44;;;;;;;22.83;13.13;;;2.60;99.90;3.50;97234.00;;;;5110864;28;20417;-68
2022/11/30 07:59:33;;;;;;;24.07;13.43;;;2.60;99.90;3.60;97236.00;;;;5104803;28;20425;-68
2022/11/30 08:02:22;;;;;;;27.50;15.33;;;2.60;99.90;3.80;97245.00;;;;5095799;28;20469;-69
2022/11/30 08:05:11;;;;;;;26.27;14.20;;;2.60;99.90;3.90;97257.00;;;;5105048;28;20437;-68
2022/11/30 08:08:00;;;;;;;21.00;13.70;;;2.60;99.90;3.90;97254.00;;;;5104858;28;20491;-68
2022/11/30 08:10:50;;;;;;;31.70;16.57;;;2.70;99.90;3.80;97253.00;;;;5106323;28;20424;-68
2022/11/30 08:13:39;;;;;;;27.53;15.90;;;2.70;99.90;3.70;97249.00;;;;5097582;28;20253;-68
2022/11/30 08:16:30;;;;;;;25.57;15.27;;;2.70;99.90;3.90;97261.00;;;;5097008;28;20774;-68
2022/11/30 08:19:19;;;;;;;28.60;17.90;;;2.70;99.90;4.10;97259.00;;;;5095377;28;20418;-68
2022/11/30 08:22:08;;;;;;;43.30;21.40;;;2.70;99.90;4.10;97259.00;;;;5102182;28;20487;-68
2022/11/30 08:24:57;;;;;;;40.03;19.37;;;2.90;99.90;4.20;97256.00;;;;5097135;28;20486;-68
2022/11/30 08:27:47;;;;;;;32.27;18.30;;;2.90;99.90;4.10;97255.00;;;;5101772;28;20506;-68
2022/11/30 08:30:36;;;;;;;29.97;17.47;;;2.90;99.90;4.00;97258.00;;;;5096557;28;20474;-68
2022/11/30 08:33:24;;;;;;;31.90;19.23;;;3.00;99.90;4.20;97259.00;;;;5100836;28;20813;-68
2022/11/30 08:36:17;;;;;;;33.50;18.70;;;3.00;99.90;4.20;97258.00;;;;5105688;28;20935;-68
2022/11/30 08:39:08;;;;;;;29.97;17.13;;;3.00;99.90;4.40;97256.00;;;;5103643;28;20416;-67
2022/11/30 08:41:56;;;;;;;36.00;18.33;;;3.00;99.90;4.20;97240.00;;;;5102246;28;20203;-68
2022/11/30 08:44:46;;;;;;;36.57;19.67;;;3.00;99.90;4.30;97249.00;;;;5104726;28;20456;-68
2022/11/30 08:47:35;;;;;;;41.70;22.00;;;3.10;99.90;4.40;97248.00;;;;5100446;28;20420;-68
2022/11/30 08:50:24;;;;;;;44.20;24.50;;;3.10;99.90;4.40;97258.00;;;;5102036;28;20927;-68
2022/11/30 08:53:13;;;;;;;43.60;21.93;;;3.10;99.90;4.40;97249.00;;;;5103522;28;20971;-68
2022/11/30 08:56:05;;;;;;;44.63;21.47;;;3.10;99.90;4.60;97256.00;;;;5103647;28;20507;-68
2022/11/30 08:58:55;;;;;;;35.47;19.97;;;3.20;99.90;4.60;97256.00;;;;5098695;28;20447;-67
2022/11/30 09:01:45;;;;;;;30.67;17.67;;;3.20;99.90;4.60;97257.00;;;;5100567;28;20823;-68
2022/11/30 09:04:34;;;;;;;32.40;17.53;;;3.30;99.90;4.60;97261.00;;;;5118145;27;20491;-68
2022/11/30 09:07:22;;;;;;;35.27;17.37;;;3.30;99.90;4.70;97259.00;;;;5123326;27;20706;-68
2022/11/30 09:10:12;;;;;;;29.43;17.57;;;3.30;99.90;4.60;97254.00;;;;5121095;27;20689;-68
2022/11/30 09:13:01;;;;;;;31.03;17.13;;;3.40;99.90;4.50;97257.00;;;;5120293;27;20217;-68
2022/11/30 09:15:55;;;;;;;27.53;16.57;;;3.30;99.90;4.40;97264.00;;;;5122369;27;20202;-68
2022/11/30 09:18:45;;;;;;;34.87;18.60;;;3.50;99.90;4.40;97267.00;;;;5120991;27;20205;-68
2022/11/30 09:21:34;;;;;;;30.70;16.07;;;3.30;99.90;4.30;97264.00;;;;5117351;27;20239;-68
2022/11/30 09:24:23;;;;;;;27.50;16.13;;;3.30;99.90;4.20;97268.00;;;;5122229;27;20213;-68
2022/11/30 09:27:11;;;;;;;24.47;14.53;;;3.20;99.90;4.20;97259.00;;;;5121163;27;20203;-67
2022/11/30 09:30:01;;;;;;;29.13;17.07;;;3.20;99.90;4.30;97261.00;;;;5117936;27;20210;-68
2022/11/30 09:32:49;;;;;;;30.60;15.87;;;3.20;99.90;4.30;97255.00;;;;5121588;27;20226;-68
2022/11/30 09:35:39;;;;;;;29.27;16.00;;;3.20;99.90;4.20;97243.00;;;;5122088;27;20443;-67
2022/11/30 09:38:29;;;;;;;26.03;13.67;;;3.20;99.90;4.30;97241.00;;;;5121484;27;20909;-68
2022/11/30 09:41:52;;;;;;;20.83;13.27;;;3.20;99.90;4.20;97237.00;;;;5121789;27;20198;-68
2022/11/30 09:44:54;;;;;;;24.57;14.40;;;3.20;99.90;4.40;97237.00;;;;5114833;27;20479;-68
2022/11/30 09:48:17;;;;;;;24.93;14.07;;;3.30;99.90;4.60;97239.00;;;;5122683;27;20436;-68
2022/11/30 09:51:14;;;;;;;20.67;12.27;;;3.30;99.90;4.60;97232.00;;;;5122026;27;20471;-68
2022/11/30 09:54:07;;;;;;;14.97;10.33;;;3.40;99.90;4.80;97232.00;;;;5125961;27;20985;-68
2022/11/30 09:56:56;;;;;;;17.47;10.67;;;3.40;99.90;4.90;97220.00;;;;5117694;27;20439;-68
2022/11/30 09:59:54;;;;;;;17.77;10.17;;;3.40;99.90;4.80;97227.00;;;;5122207;27;20942;-68
2022/11/30 10:02:44;;;;;;;15.10;10.07;;;3.40;99.90;4.80;97230.00;;;;5121537;27;20206;-68
2022/11/30 10:05:46;;;;;;;14.00;9.27;;;3.60;99.90;5.00;97232.00;;;;5118235;28;20548;-68
2022/11/30 10:08:55;;;;;;;15.73;8.70;;;3.60;99.90;5.10;97229.00;;;;5120862;28;20851;-67
2022/11/30 10:11:58;;;;;;;10.10;6.90;;;3.80;99.90;5.10;97228.00;;;;5121606;28;20198;-68
2022/11/30 10:15:03;;;;;;;12.77;7.40;;;3.70;99.90;5.10;97229.00;;;;5115802;28;20699;-68
2022/11/30 10:17:55;;;;;;;11.67;7.10;;;3.70;99.90;5.10;97222.00;;;;5125736;28;20258;-68
2022/11/30 10:21:08;;;;;;;15.13;7.63;;;3.70;99.90;5.30;97216.00;;;;5121323;28;20206;-68
2022/11/30 10:24:24;;;;;;;11.73;7.30;;;3.80;99.90;5.00;97219.00;;;;5122860;28;20213;-68
2022/11/30 10:27:18;;;;;;;13.67;8.60;;;3.80;99.90;5.00;97218.00;;;;5119737;28;20216;-68
2022/11/30 10:30:16;;;;;;;13.10;8.43;;;3.90;99.90;5.10;97225.00;;;;5120745;28;20699;-68
2022/11/30 10:33:17;;;;;;;12.90;9.37;;;3.90;99.90;5.20;97225.00;;;;5118980;27;20218;-68
2022/11/30 10:36:13;;;;;;;9.87;7.50;;;3.90;99.90;5.20;97219.00;;;;5115947;28;20251;-68
2022/11/30 10:39:11;;;;;;;14.00;9.57;;;4.00;99.90;5.00;97223.00;;;;5123753;28;20210;-68
2022/11/30 10:42:08;;;;;;;14.43;8.10;;;4.00;99.90;4.80;97221.00;;;;5111750;27;20210;-68
2022/11/30 10:45:01;;;;;;;11.63;8.57;;;3.90;99.90;4.70;97205.00;;;;5120988;28;20621;-68
2022/11/30 10:47:59;;;;;;;11.37;7.67;;;3.90;99.90;4.70;97214.00;;;;5112442;28;20210;-68
2022/11/30 10:50:48;;;;;;;12.90;8.53;;;3.80;99.90;5.00;97218.00;;;;5113762;27;20294;-68
2022/11/30 10:53:37;;;;;;;16.27;8.87;;;3.80;99.90;4.90;97205.00;;;;5121981;27;20210;-69
2022/11/30 10:56:27;;;;;;;19.07;9.83;;;3.90;99.90;5.00;97214.00;;;;5113596;27;20256;-68
2022/11/30 10:59:20;;;;;;;16.37;9.23;;;3.90;99.90;5.10;97211.00;;;;5122250;27;20198;-68
2022/11/30 11:02:36;;;;;;;12.53;9.07;;;3.90;99.90;5.20;97218.00;;;;5119950;27;20241;-69
2022/11/30 11:05:27;;;;;;;11.70;7.67;;;4.00;99.90;5.10;97211.00;;;;5121328;27;20221;-69
2022/11/30 11:08:24;;;;;;;11.10;8.33;;;4.00;99.90;4.90;97201.00;;;;5117304;27;20259;-69
2022/11/30 11:11:33;;;;;;;14.83;8.73;;;4.00;99.90;5.00;97196.00;;;;5121597;27;20616;-69
2022/11/30 11:14:25;;;;;;;12.87;7.67;;;4.00;99.90;5.00;97208.00;;;;5116190;27;20222;-69
2022/11/30 11:17:25;;;;;;;14.77;8.77;;;3.90;99.90;5.10;97207.00;;;;5122474;27;20213;-69
2022/11/30 11:20:32;;;;;;;16.50;8.93;;;4.00;99.90;5.30;97199.00;;;;5119838;27;20202;-69
2022/11/30 11:23:23;;;;;;;13.60;9.03;;;4.00;99.90;5.30;97196.00;;;;5120350;27;20229;-69
2022/11/30 11:26:19;;;;;;;12.57;9.07;;;4.00;99.90;5.30;97200.00;;;;5119146;27;20240;-69
2022/11/30 11:29:30;;;;;;;14.90;8.73;;;4.10;99.90;5.40;97207.00;;;;5117283;27;20427;-68
2022/11/30 11:32:23;;;;;;;10.40;6.90;;;4.10;99.90;5.20;97192.00;;;;5119182;27;20195;-68
2022/11/30 11:35:38;;;;;;;15.30;8.63;;;4.20;99.90;5.40;97190.00;;;;5118947;27;20696;-68
2022/11/30 11:38:30;;;;;;;13.30;9.23;;;4.20;99.90;5.40;97196.00;;;;5117091;27;20629;-69
2022/11/30 11:41:25;;;;;;;14.27;8.67;;;4.20;99.90;5.30;97190.00;;;;5123382;27;20213;-68
2022/11/30 11:44:22;;;;;;;15.50;9.20;;;4.20;99.90;5.30;97194.00;;;;5119370;27;20753;-68
2022/11/30 11:47:26;;;;;;;14.33;8.87;;;4.20;99.90;5.30;97196.00;;;;5121477;27;20198;-68
2022/11/30 11:50:27;;;;;;;16.93;9.07;;;4.20;99.90;5.30;97190.00;;;;5123741;27;20222;-68
2022/11/30 11:53:45;;;;;;;12.03;8.40;;;4.20;99.90;5.30;97188.00;;;;5118206;27;20721;-68
2022/11/30 11:56:37;;;;;;;15.53;8.10;;;4.20;99.90;5.40;97186.00;;;;5120184;27;20198;-68
2022/11/30 11:59:38;;;;;;;12.30;7.43;;;4.20;99.90;5.30;97197.00;;;;5120421;27;20263;-68
2022/11/30 12:02:34;;;;;;;12.30;8.77;;;4.20;99.90;5.30;97186.00;;;;5119134;27;20418;-68
2022/11/30 12:05:29;;;;;;;13.70;9.03;;;4.20;99.90;5.20;97183.00;;;;5119482;27;20213;-68
2022/11/30 12:08:33;;;;;;;13.37;8.63;;;4.30;99.90;5.10;97189.00;;;;5116741;27;20281;-69
2022/11/30 12:11:25;;;;;;;13.07;8.77;;;4.20;99.90;5.20;97189.00;;;;5120805;27;20257;-68
2022/11/30 12:14:16;;;;;;;10.60;7.03;;;4.20;99.90;5.30;97183.00;;;;5128196;27;20756;-68
2022/11/30 12:17:26;;;;;;;13.73;8.60;;;4.20;99.90;5.20;97175.00;;;;5118021;27;20230;-68
2022/11/30 12:20:24;;;;;;;12.97;8.80;;;4.20;99.90;5.10;97186.00;;;;5125911;27;20214;-68
2022/11/30 12:23:33;;;;;;;11.63;8.10;;;4.20;99.90;5.20;97177.00;;;;5120138;27;20233;-68
2022/11/30 12:26:34;;;;;;;16.03;8.13;;;4.20;99.90;5.30;97179.00;;;;5119129;27;20198;-68
2022/11/30 12:29:45;;;;;;;11.67;7.77;;;4.20;99.90;5.50;97187.00;;;;5118176;27;20227;-68
2022/11/30 12:33:15;;;;;;;16.67;10.33;;;4.20;99.90;5.40;97183.00;;;;5112821;27;20234;-68
2022/11/30 12:36:14;;;;;;;14.97;9.03;;;4.20;99.90;5.40;97173.00;;;;5117080;27;20193;-68
2022/11/30 12:39:09;;;;;;;14.90;9.20;;;4.20;99.90;5.30;97178.00;;;;5121220;27;20224;-68
2022/11/30 12:42:06;;;;;;;11.43;8.57;;;4.20;99.90;5.50;97187.00;;;;5117616;27;20206;-68
2022/11/30 12:45:05;;;;;;;15.60;9.57;;;4.20;99.90;5.40;97178.00;;;;5129516;27;20704;-68
2022/11/30 12:48:04;;;;;;;14.57;8.80;;;4.20;99.90;5.30;97181.00;;;;5129672;27;20190;-68
2022/11/30 12:51:09;;;;;;;15.77;8.47;;;4.20;99.90;5.50;97173.00;;;;5123037;27;20228;-67
2022/11/30 12:54:09;;;;;;;13.23;8.30;;;4.20;99.90;5.50;97177.00;;;;5124877;27;20236;-67